Oyo, Nigeria
Current Conditions -  °F | °C
As of 10:00 AM on Wednesday 28 Jan 2015 (Local Time) from DBBB Reporting Station
Scattered Clouds Scattered Clouds  
Wind Chill: 84°   Ceiling: Unl
Heat Index: 94°   Visibility: 5mi
Dew Point: 77°   Wind: 7mph
Humidity: 79%   Direction: 270°W
Pressure: 29.85"   Gusts: NA
Location:  7.83°N, 3.92°E
Report Text: DBBB 280900Z 27006KT 240V310 8000 SCT012 29/25 Q1011 NOSIG
Loading
Personal Weather Stations






























Interactive Weather Map New forecast layout! Learn more

10-Day Weather Forecast

Advertisements
Track Severe Weather on mobile